sensor_id;sensor_type;location;lat;lon;timestamp;P1;durP1;ratioP1;P2;durP2;ratioP2
75156;SDS011;63736;50.076;8.198;2022-12-07T00:03:32;87.50;;;46.72;;
75156;SDS011;63736;50.076;8.198;2022-12-07T00:05:58;96.57;;;48.57;;
75156;SDS011;63736;50.076;8.198;2022-12-07T00:08:24;119.25;;;57.28;;
75156;SDS011;63736;50.076;8.198;2022-12-07T00:10:49;121.60;;;58.40;;
75156;SDS011;63736;50.076;8.198;2022-12-07T00:13:14;123.43;;;57.60;;
75156;SDS011;63736;50.076;8.198;2022-12-07T00:15:39;121.63;;;56.20;;
75156;SDS011;63736;50.076;8.198;2022-12-07T00:18:05;98.10;;;33.40;;
75156;SDS011;63736;50.076;8.198;2022-12-07T00:20:30;93.67;;;32.77;;
75156;SDS011;63736;50.076;8.198;2022-12-07T00:22:56;60.03;;;23.83;;
75156;SDS011;63736;50.076;8.198;2022-12-07T00:25:21;54.80;;;19.67;;
75156;SDS011;63736;50.076;8.198;2022-12-07T00:27:46;53.57;;;18.97;;
75156;SDS011;63736;50.076;8.198;2022-12-07T00:30:12;41.10;;;14.80;;
75156;SDS011;63736;50.076;8.198;2022-12-07T00:32:37;32.00;;;12.80;;
75156;SDS011;63736;50.076;8.198;2022-12-07T00:35:02;24.27;;;10.13;;
75156;SDS011;63736;50.076;8.198;2022-12-07T00:37:28;25.15;;;9.57;;
75156;SDS011;63736;50.076;8.198;2022-12-07T00:39:53;25.07;;;9.53;;
75156;SDS011;63736;50.076;8.198;2022-12-07T00:42:18;21.63;;;8.30;;
75156;SDS011;63736;50.076;8.198;2022-12-07T00:44:44;19.03;;;8.70;;
75156;SDS011;63736;50.076;8.198;2022-12-07T00:47:09;16.77;;;7.07;;
75156;SDS011;63736;50.076;8.198;2022-12-07T00:49:35;13.77;;;5.68;;
75156;SDS011;63736;50.076;8.198;2022-12-07T00:52:00;11.07;;;4.17;;
75156;SDS011;63736;50.076;8.198;2022-12-07T00:54:25;10.53;;;3.87;;
75156;SDS011;63736;50.076;8.198;2022-12-07T00:56:51;11.63;;;4.40;;
75156;SDS011;63736;50.076;8.198;2022-12-07T00:59:16;12.57;;;4.60;;
75156;SDS011;63736;50.076;8.198;2022-12-07T01:01:41;12.47;;;4.30;;
75156;SDS011;63736;50.076;8.198;2022-12-07T01:04:06;11.32;;;3.58;;
75156;SDS011;63736;50.076;8.198;2022-12-07T01:06:32;10.57;;;3.83;;
75156;SDS011;63736;50.076;8.198;2022-12-07T01:08:58;9.37;;;3.43;;
75156;SDS011;63736;50.076;8.198;2022-12-07T01:11:25;10.77;;;4.55;;
75156;SDS011;63736;50.076;8.198;2022-12-07T01:13:52;11.77;;;5.05;;
75156;SDS011;63736;50.076;8.198;2022-12-07T01:16:20;6.93;;;2.60;;
75156;SDS011;63736;50.076;8.198;2022-12-07T01:18:47;8.80;;;3.27;;
75156;SDS011;63736;50.076;8.198;2022-12-07T01:21:15;9.95;;;3.00;;
75156;SDS011;63736;50.076;8.198;2022-12-07T01:23:43;8.52;;;3.25;;
75156;SDS011;63736;50.076;8.198;2022-12-07T01:26:10;9.68;;;3.47;;
75156;SDS011;63736;50.076;8.198;2022-12-07T01:28:37;9.90;;;3.80;;
75156;SDS011;63736;50.076;8.198;2022-12-07T01:31:06;11.00;;;4.50;;
75156;SDS011;63736;50.076;8.198;2022-12-07T01:33:36;10.57;;;3.93;;
75156;SDS011;63736;50.076;8.198;2022-12-07T01:36:03;11.18;;;4.55;;
75156;SDS011;63736;50.076;8.198;2022-12-07T01:38:30;11.75;;;4.43;;
75156;SDS011;63736;50.076;8.198;2022-12-07T01:40:57;11.15;;;4.35;;
75156;SDS011;63736;50.076;8.198;2022-12-07T01:43:23;11.85;;;5.07;;
75156;SDS011;63736;50.076;8.198;2022-12-07T01:45:51;13.57;;;4.47;;
75156;SDS011;63736;50.076;8.198;2022-12-07T01:48:17;13.18;;;3.85;;
75156;SDS011;63736;50.076;8.198;2022-12-07T01:50:47;11.23;;;4.30;;
75156;SDS011;63736;50.076;8.198;2022-12-07T01:53:15;12.33;;;4.13;;
75156;SDS011;63736;50.076;8.198;2022-12-07T01:55:42;8.18;;;2.92;;
75156;SDS011;63736;50.076;8.198;2022-12-07T01:58:12;10.48;;;3.85;;
75156;SDS011;63736;50.076;8.198;2022-12-07T02:00:38;10.32;;;4.57;;
75156;SDS011;63736;50.076;8.198;2022-12-07T02:03:04;10.30;;;4.83;;
75156;SDS011;63736;50.076;8.198;2022-12-07T02:05:35;9.23;;;3.25;;
75156;SDS011;63736;50.076;8.198;2022-12-07T02:08:03;11.48;;;5.07;;
75156;SDS011;63736;50.076;8.198;2022-12-07T02:10:30;13.53;;;5.10;;
75156;SDS011;63736;50.076;8.198;2022-12-07T02:12:58;13.02;;;5.47;;
75156;SDS011;63736;50.076;8.198;2022-12-07T02:15:25;11.43;;;5.20;;
75156;SDS011;63736;50.076;8.198;2022-12-07T02:18:16;13.50;;;5.80;;
75156;SDS011;63736;50.076;8.198;2022-12-07T02:20:49;12.52;;;4.78;;
75156;SDS011;63736;50.076;8.198;2022-12-07T02:26:02;10.18;;;3.50;;
75156;SDS011;63736;50.076;8.198;2022-12-07T02:31:42;13.57;;;4.97;;
75156;SDS011;63736;50.076;8.198;2022-12-07T02:37:03;10.32;;;3.95;;
75156;SDS011;63736;50.076;8.198;2022-12-07T02:39:42;9.30;;;3.15;;
75156;SDS011;63736;50.076;8.198;2022-12-07T02:42:15;10.45;;;4.28;;
75156;SDS011;63736;50.076;8.198;2022-12-07T02:44:44;9.03;;;3.50;;
75156;SDS011;63736;50.076;8.198;2022-12-07T02:47:12;10.45;;;3.67;;
75156;SDS011;63736;50.076;8.198;2022-12-07T02:49:40;10.27;;;4.25;;
75156;SDS011;63736;50.076;8.198;2022-12-07T02:52:06;9.98;;;3.60;;
75156;SDS011;63736;50.076;8.198;2022-12-07T02:54:32;11.70;;;3.80;;
75156;SDS011;63736;50.076;8.198;2022-12-07T02:57:15;9.87;;;3.83;;
75156;SDS011;63736;50.076;8.198;2022-12-07T03:00:04;9.50;;;3.55;;
75156;SDS011;63736;50.076;8.198;2022-12-07T03:02:47;10.40;;;3.85;;
75156;SDS011;63736;50.076;8.198;2022-12-07T03:18:33;9.77;;;3.77;;
75156;SDS011;63736;50.076;8.198;2022-12-07T03:21:04;9.77;;;3.67;;
75156;SDS011;63736;50.076;8.198;2022-12-07T03:23:35;10.05;;;4.43;;
75156;SDS011;63736;50.076;8.198;2022-12-07T03:26:04;14.18;;;4.18;;
75156;SDS011;63736;50.076;8.198;2022-12-07T03:28:35;10.48;;;4.10;;
75156;SDS011;63736;50.076;8.198;2022-12-07T03:31:09;11.30;;;3.90;;
75156;SDS011;63736;50.076;8.198;2022-12-07T03:34:03;10.90;;;4.20;;
75156;SDS011;63736;50.076;8.198;2022-12-07T03:36:36;9.75;;;3.88;;
75156;SDS011;63736;50.076;8.198;2022-12-07T03:39:19;10.63;;;3.65;;
75156;SDS011;63736;50.076;8.198;2022-12-07T03:41:50;10.68;;;3.83;;
75156;SDS011;63736;50.076;8.198;2022-12-07T03:44:17;8.77;;;3.27;;
75156;SDS011;63736;50.076;8.198;2022-12-07T03:46:52;10.82;;;4.25;;
75156;SDS011;63736;50.076;8.198;2022-12-07T03:49:26;8.13;;;2.90;;
75156;SDS011;63736;50.076;8.198;2022-12-07T03:55:06;9.18;;;3.70;;
75156;SDS011;63736;50.076;8.198;2022-12-07T03:57:35;11.60;;;4.20;;
75156;SDS011;63736;50.076;8.198;2022-12-07T04:00:03;11.55;;;3.90;;
75156;SDS011;63736;50.076;8.198;2022-12-07T04:02:30;12.60;;;4.53;;
75156;SDS011;63736;50.076;8.198;2022-12-07T04:04:57;13.07;;;4.75;;
75156;SDS011;63736;50.076;8.198;2022-12-07T04:07:22;8.50;;;3.20;;
75156;SDS011;63736;50.076;8.198;2022-12-07T04:09:48;11.03;;;3.90;;
75156;SDS011;63736;50.076;8.198;2022-12-07T04:12:13;9.07;;;3.77;;
75156;SDS011;63736;50.076;8.198;2022-12-07T04:14:38;11.10;;;4.60;;
75156;SDS011;63736;50.076;8.198;2022-12-07T04:17:03;11.70;;;4.97;;
75156;SDS011;63736;50.076;8.198;2022-12-07T04:19:30;10.10;;;3.67;;
75156;SDS011;63736;50.076;8.198;2022-12-07T04:21:57;8.30;;;3.23;;
75156;SDS011;63736;50.076;8.198;2022-12-07T04:24:24;9.15;;;2.95;;
75156;SDS011;63736;50.076;8.198;2022-12-07T04:26:49;10.18;;;3.60;;
75156;SDS011;63736;50.076;8.198;2022-12-07T04:29:15;10.30;;;3.40;;
75156;SDS011;63736;50.076;8.198;2022-12-07T04:31:42;10.00;;;3.45;;
75156;SDS011;63736;50.076;8.198;2022-12-07T04:34:08;9.40;;;3.65;;
75156;SDS011;63736;50.076;8.198;2022-12-07T04:36:35;10.80;;;4.13;;
75156;SDS011;63736;50.076;8.198;2022-12-07T04:39:00;11.95;;;4.47;;
75156;SDS011;63736;50.076;8.198;2022-12-07T04:41:26;13.50;;;4.80;;
75156;SDS011;63736;50.076;8.198;2022-12-07T04:43:55;10.80;;;3.93;;
75156;SDS011;63736;50.076;8.198;2022-12-07T04:46:22;11.23;;;4.60;;
75156;SDS011;63736;50.076;8.198;2022-12-07T04:48:48;13.63;;;5.47;;
75156;SDS011;63736;50.076;8.198;2022-12-07T04:51:15;26.60;;;20.23;;
75156;SDS011;63736;50.076;8.198;2022-12-07T04:53:44;23.97;;;11.10;;
75156;SDS011;63736;50.076;8.198;2022-12-07T04:56:09;27.37;;;11.20;;
75156;SDS011;63736;50.076;8.198;2022-12-07T04:58:34;28.97;;;12.57;;
75156;SDS011;63736;50.076;8.198;2022-12-07T05:00:59;19.60;;;8.80;;
75156;SDS011;63736;50.076;8.198;2022-12-07T05:03:25;17.53;;;7.80;;
75156;SDS011;63736;50.076;8.198;2022-12-07T05:05:50;23.77;;;8.97;;
75156;SDS011;63736;50.076;8.198;2022-12-07T05:08:15;20.77;;;10.13;;
75156;SDS011;63736;50.076;8.198;2022-12-07T05:10:40;22.67;;;10.70;;
75156;SDS011;63736;50.076;8.198;2022-12-07T05:13:06;36.63;;;22.60;;
75156;SDS011;63736;50.076;8.198;2022-12-07T05:15:31;32.80;;;17.17;;
75156;SDS011;63736;50.076;8.198;2022-12-07T05:17:56;35.90;;;20.77;;
75156;SDS011;63736;50.076;8.198;2022-12-07T05:20:21;35.00;;;21.80;;
75156;SDS011;63736;50.076;8.198;2022-12-07T05:22:47;36.50;;;26.63;;
75156;SDS011;63736;50.076;8.198;2022-12-07T05:25:12;20.47;;;9.00;;
75156;SDS011;63736;50.076;8.198;2022-12-07T05:27:37;23.83;;;10.60;;
75156;SDS011;63736;50.076;8.198;2022-12-07T05:30:03;28.73;;;13.57;;
75156;SDS011;63736;50.076;8.198;2022-12-07T05:32:30;25.25;;;11.00;;
75156;SDS011;63736;50.076;8.198;2022-12-07T05:34:55;18.03;;;8.47;;
75156;SDS011;63736;50.076;8.198;2022-12-07T05:37:20;19.37;;;10.00;;
75156;SDS011;63736;50.076;8.198;2022-12-07T05:39:46;24.37;;;14.63;;
75156;SDS011;63736;50.076;8.198;2022-12-07T05:42:11;38.57;;;22.50;;
75156;SDS011;63736;50.076;8.198;2022-12-07T05:44:36;33.95;;;23.77;;
75156;SDS011;63736;50.076;8.198;2022-12-07T05:47:02;48.13;;;32.47;;
75156;SDS011;63736;50.076;8.198;2022-12-07T05:49:27;49.90;;;33.67;;
75156;SDS011;63736;50.076;8.198;2022-12-07T05:51:53;50.35;;;34.85;;
75156;SDS011;63736;50.076;8.198;2022-12-07T05:54:18;60.23;;;39.63;;
75156;SDS011;63736;50.076;8.198;2022-12-07T05:56:43;67.27;;;41.47;;
75156;SDS011;63736;50.076;8.198;2022-12-07T05:59:09;75.33;;;44.13;;
75156;SDS011;63736;50.076;8.198;2022-12-07T06:01:59;98.72;;;49.88;;
75156;SDS011;63736;50.076;8.198;2022-12-07T06:04:31;109.23;;;52.20;;
75156;SDS011;63736;50.076;8.198;2022-12-07T06:06:58;111.40;;;52.58;;
75156;SDS011;63736;50.076;8.198;2022-12-07T06:09:24;118.47;;;54.45;;
75156;SDS011;63736;50.076;8.198;2022-12-07T06:11:51;55.90;;;36.97;;
75156;SDS011;63736;50.076;8.198;2022-12-07T06:14:36;49.78;;;35.55;;
75156;SDS011;63736;50.076;8.198;2022-12-07T06:17:01;52.08;;;36.67;;
75156;SDS011;63736;50.076;8.198;2022-12-07T06:19:27;54.37;;;37.33;;
75156;SDS011;63736;50.076;8.198;2022-12-07T06:21:52;53.60;;;37.77;;
75156;SDS011;63736;50.076;8.198;2022-12-07T06:24:18;46.55;;;34.20;;
75156;SDS011;63736;50.076;8.198;2022-12-07T06:26:44;42.07;;;31.00;;
75156;SDS011;63736;50.076;8.198;2022-12-07T06:29:10;38.88;;;29.77;;
75156;SDS011;63736;50.076;8.198;2022-12-07T06:31:35;34.28;;;26.60;;
75156;SDS011;63736;50.076;8.198;2022-12-07T06:34:02;35.73;;;28.03;;
75156;SDS011;63736;50.076;8.198;2022-12-07T06:36:29;43.67;;;31.35;;
75156;SDS011;63736;50.076;8.198;2022-12-07T06:38:55;39.83;;;30.42;;
75156;SDS011;63736;50.076;8.198;2022-12-07T06:41:21;47.73;;;35.53;;
75156;SDS011;63736;50.076;8.198;2022-12-07T06:43:47;50.33;;;36.33;;
75156;SDS011;63736;50.076;8.198;2022-12-07T06:46:12;53.50;;;37.00;;
75156;SDS011;63736;50.076;8.198;2022-12-07T06:48:39;63.92;;;40.15;;
75156;SDS011;63736;50.076;8.198;2022-12-07T06:51:04;67.70;;;41.37;;
75156;SDS011;63736;50.076;8.198;2022-12-07T06:53:29;61.28;;;38.90;;
75156;SDS011;63736;50.076;8.198;2022-12-07T06:55:55;55.10;;;36.53;;
75156;SDS011;63736;50.076;8.198;2022-12-07T06:58:20;40.97;;;31.57;;
75156;SDS011;63736;50.076;8.198;2022-12-07T07:00:47;44.77;;;32.13;;
75156;SDS011;63736;50.076;8.198;2022-12-07T07:03:13;49.00;;;34.58;;
75156;SDS011;63736;50.076;8.198;2022-12-07T07:05:38;51.03;;;35.63;;
75156;SDS011;63736;50.076;8.198;2022-12-07T07:08:04;47.23;;;34.20;;
75156;SDS011;63736;50.076;8.198;2022-12-07T07:10:29;40.78;;;28.02;;
75156;SDS011;63736;50.076;8.198;2022-12-07T07:12:55;36.07;;;24.67;;
75156;SDS011;63736;50.076;8.198;2022-12-07T07:15:20;42.77;;;27.23;;
75156;SDS011;63736;50.076;8.198;2022-12-07T07:17:45;42.30;;;27.80;;
75156;SDS011;63736;50.076;8.198;2022-12-07T07:20:11;30.70;;;22.93;;
75156;SDS011;63736;50.076;8.198;2022-12-07T07:22:37;33.88;;;26.00;;
75156;SDS011;63736;50.076;8.198;2022-12-07T07:25:02;46.67;;;33.47;;
75156;SDS011;63736;50.076;8.198;2022-12-07T07:27:27;65.17;;;40.17;;
75156;SDS011;63736;50.076;8.198;2022-12-07T07:29:53;74.87;;;43.23;;
75156;SDS011;63736;50.076;8.198;2022-12-07T07:32:18;85.05;;;44.95;;
75156;SDS011;63736;50.076;8.198;2022-12-07T07:34:43;88.57;;;46.17;;
75156;SDS011;63736;50.076;8.198;2022-12-07T07:37:09;101.70;;;48.87;;
75156;SDS011;63736;50.076;8.198;2022-12-07T07:39:35;96.28;;;48.67;;
75156;SDS011;63736;50.076;8.198;2022-12-07T07:42:01;86.63;;;45.80;;
75156;SDS011;63736;50.076;8.198;2022-12-07T07:44:26;88.10;;;46.60;;
75156;SDS011;63736;50.076;8.198;2022-12-07T07:46:51;82.43;;;44.97;;
75156;SDS011;63736;50.076;8.198;2022-12-07T07:49:17;75.83;;;43.80;;
75156;SDS011;63736;50.076;8.198;2022-12-07T07:51:42;70.73;;;42.60;;
75156;SDS011;63736;50.076;8.198;2022-12-07T07:54:07;74.17;;;43.77;;
75156;SDS011;63736;50.076;8.198;2022-12-07T07:56:32;75.07;;;43.27;;
75156;SDS011;63736;50.076;8.198;2022-12-07T07:58:58;74.27;;;42.83;;
75156;SDS011;63736;50.076;8.198;2022-12-07T08:01:23;73.97;;;43.07;;
75156;SDS011;63736;50.076;8.198;2022-12-07T08:03:48;72.90;;;42.67;;
75156;SDS011;63736;50.076;8.198;2022-12-07T08:06:14;76.67;;;44.13;;
75156;SDS011;63736;50.076;8.198;2022-12-07T08:08:39;81.70;;;46.00;;
75156;SDS011;63736;50.076;8.198;2022-12-07T08:11:08;84.23;;;45.30;;
75156;SDS011;63736;50.076;8.198;2022-12-07T08:13:34;86.88;;;45.67;;
75156;SDS011;63736;50.076;8.198;2022-12-07T08:16:03;99.13;;;49.38;;
75156;SDS011;63736;50.076;8.198;2022-12-07T08:18:29;102.10;;;49.60;;
75156;SDS011;63736;50.076;8.198;2022-12-07T08:20:58;101.57;;;49.60;;
75156;SDS011;63736;50.076;8.198;2022-12-07T08:23:25;104.70;;;49.95;;
75156;SDS011;63736;50.076;8.198;2022-12-07T08:25:51;142.50;;;58.33;;
75156;SDS011;63736;50.076;8.198;2022-12-07T08:28:16;168.63;;;64.97;;
75156;SDS011;63736;50.076;8.198;2022-12-07T08:30:41;88.10;;;47.03;;
75156;SDS011;63736;50.076;8.198;2022-12-07T08:33:07;23.43;;;16.00;;
75156;SDS011;63736;50.076;8.198;2022-12-07T08:35:34;15.65;;;9.77;;
75156;SDS011;63736;50.076;8.198;2022-12-07T08:37:59;16.92;;;8.57;;
75156;SDS011;63736;50.076;8.198;2022-12-07T08:40:26;14.33;;;6.83;;
75156;SDS011;63736;50.076;8.198;2022-12-07T08:42:52;16.30;;;10.60;;
75156;SDS011;63736;50.076;8.198;2022-12-07T08:45:17;18.15;;;11.00;;
75156;SDS011;63736;50.076;8.198;2022-12-07T08:47:49;18.87;;;9.73;;
75156;SDS011;63736;50.076;8.198;2022-12-07T08:50:19;14.05;;;5.82;;
75156;SDS011;63736;50.076;8.198;2022-12-07T08:52:44;12.48;;;5.65;;
75156;SDS011;63736;50.076;8.198;2022-12-07T08:55:15;12.43;;;5.15;;
75156;SDS011;63736;50.076;8.198;2022-12-07T08:57:41;12.33;;;4.90;;
75156;SDS011;63736;50.076;8.198;2022-12-07T09:00:07;10.45;;;3.85;;
75156;SDS011;63736;50.076;8.198;2022-12-07T09:02:33;9.73;;;3.87;;
75156;SDS011;63736;50.076;8.198;2022-12-07T09:04:59;10.60;;;3.97;;
75156;SDS011;63736;50.076;8.198;2022-12-07T09:07:24;8.97;;;3.43;;
75156;SDS011;63736;50.076;8.198;2022-12-07T09:09:50;11.87;;;4.60;;
75156;SDS011;63736;50.076;8.198;2022-12-07T09:12:15;11.70;;;5.20;;
75156;SDS011;63736;50.076;8.198;2022-12-07T09:14:40;11.20;;;4.30;;
75156;SDS011;63736;50.076;8.198;2022-12-07T09:17:09;13.37;;;4.53;;
75156;SDS011;63736;50.076;8.198;2022-12-07T09:19:36;12.30;;;5.20;;
75156;SDS011;63736;50.076;8.198;2022-12-07T09:22:03;16.15;;;5.65;;
75156;SDS011;63736;50.076;8.198;2022-12-07T09:24:32;12.10;;;4.72;;
75156;SDS011;63736;50.076;8.198;2022-12-07T09:26:58;10.33;;;3.87;;
75156;SDS011;63736;50.076;8.198;2022-12-07T09:29:23;9.33;;;3.83;;
75156;SDS011;63736;50.076;8.198;2022-12-07T09:31:48;9.48;;;4.30;;
75156;SDS011;63736;50.076;8.198;2022-12-07T09:34:14;10.77;;;4.53;;
75156;SDS011;63736;50.076;8.198;2022-12-07T09:36:39;12.13;;;4.53;;
75156;SDS011;63736;50.076;8.198;2022-12-07T09:39:04;13.47;;;5.60;;
75156;SDS011;63736;50.076;8.198;2022-12-07T09:41:30;10.77;;;4.70;;
75156;SDS011;63736;50.076;8.198;2022-12-07T09:44:09;11.38;;;4.65;;
75156;SDS011;63736;50.076;8.198;2022-12-07T09:46:38;14.85;;;5.90;;
75156;SDS011;63736;50.076;8.198;2022-12-07T09:49:05;14.98;;;6.72;;
75156;SDS011;63736;50.076;8.198;2022-12-07T09:51:38;13.63;;;5.10;;
75156;SDS011;63736;50.076;8.198;2022-12-07T09:54:03;13.77;;;5.27;;
75156;SDS011;63736;50.076;8.198;2022-12-07T09:56:29;11.27;;;3.63;;
75156;SDS011;63736;50.076;8.198;2022-12-07T09:58:59;10.25;;;3.63;;
75156;SDS011;63736;50.076;8.198;2022-12-07T10:01:30;19.33;;;7.03;;
75156;SDS011;63736;50.076;8.198;2022-12-07T10:04:11;26.60;;;10.33;;
75156;SDS011;63736;50.076;8.198;2022-12-07T10:06:39;23.42;;;8.82;;
75156;SDS011;63736;50.076;8.198;2022-12-07T10:09:17;22.23;;;9.00;;
75156;SDS011;63736;50.076;8.198;2022-12-07T10:14:35;19.45;;;8.13;;
75156;SDS011;63736;50.076;8.198;2022-12-07T10:17:26;23.25;;;11.02;;
75156;SDS011;63736;50.076;8.198;2022-12-07T10:22:52;13.97;;;6.20;;
75156;SDS011;63736;50.076;8.198;2022-12-07T10:25:20;10.48;;;3.95;;
75156;SDS011;63736;50.076;8.198;2022-12-07T10:28:33;8.35;;;4.20;;
75156;SDS011;63736;50.076;8.198;2022-12-07T10:30:53;11.70;;;3.97;;
75156;SDS011;63736;50.076;8.198;2022-12-07T10:36:00;8.37;;;2.40;;
75156;SDS011;63736;50.076;8.198;2022-12-07T10:38:44;10.07;;;2.40;;
75156;SDS011;63736;50.076;8.198;2022-12-07T10:41:11;7.20;;;2.25;;
75156;SDS011;63736;50.076;8.198;2022-12-07T10:43:36;6.83;;;2.57;;
75156;SDS011;63736;50.076;8.198;2022-12-07T10:48:43;5.88;;;2.17;;
75156;SDS011;63736;50.076;8.198;2022-12-07T10:51:22;7.20;;;2.13;;
75156;SDS011;63736;50.076;8.198;2022-12-07T10:54:08;9.73;;;2.30;;
75156;SDS011;63736;50.076;8.198;2022-12-07T11:02:19;4.93;;;1.95;;
75156;SDS011;63736;50.076;8.198;2022-12-07T11:04:56;7.50;;;1.70;;
75156;SDS011;63736;50.076;8.198;2022-12-07T11:07:51;7.57;;;2.00;;
75156;SDS011;63736;50.076;8.198;2022-12-07T11:10:22;8.70;;;3.13;;
75156;SDS011;63736;50.076;8.198;2022-12-07T11:24:18;9.00;;;3.03;;
75156;SDS011;63736;50.076;8.198;2022-12-07T11:38:15;9.90;;;2.90;;
75156;SDS011;63736;50.076;8.198;2022-12-07T11:40:48;9.73;;;2.72;;
75156;SDS011;63736;50.076;8.198;2022-12-07T11:43:28;8.98;;;2.55;;
75156;SDS011;63736;50.076;8.198;2022-12-07T11:46:11;8.25;;;2.78;;
75156;SDS011;63736;50.076;8.198;2022-12-07T11:48:58;7.97;;;2.75;;
75156;SDS011;63736;50.076;8.198;2022-12-07T11:51:28;10.90;;;3.80;;
75156;SDS011;63736;50.076;8.198;2022-12-07T11:54:02;9.00;;;3.13;;
75156;SDS011;63736;50.076;8.198;2022-12-07T11:56:34;8.60;;;2.97;;
75156;SDS011;63736;50.076;8.198;2022-12-07T11:59:06;9.75;;;2.63;;
75156;SDS011;63736;50.076;8.198;2022-12-07T12:01:41;7.50;;;2.33;;
75156;SDS011;63736;50.076;8.198;2022-12-07T12:04:32;9.77;;;3.03;;
75156;SDS011;63736;50.076;8.198;2022-12-07T12:07:10;7.38;;;2.47;;
75156;SDS011;63736;50.076;8.198;2022-12-07T12:09:48;8.05;;;2.25;;
75156;SDS011;63736;50.076;8.198;2022-12-07T12:12:29;8.88;;;2.65;;
75156;SDS011;63736;50.076;8.198;2022-12-07T12:15:14;8.88;;;2.53;;
75156;SDS011;63736;50.076;8.198;2022-12-07T12:18:05;8.23;;;2.50;;
75156;SDS011;63736;50.076;8.198;2022-12-07T12:20:49;8.48;;;1.95;;
75156;SDS011;63736;50.076;8.198;2022-12-07T12:23:35;7.05;;;1.85;;
75156;SDS011;63736;50.076;8.198;2022-12-07T12:26:06;6.05;;;1.80;;
75156;SDS011;63736;50.076;8.198;2022-12-07T12:28:39;7.60;;;2.28;;
75156;SDS011;63736;50.076;8.198;2022-12-07T12:31:15;5.80;;;1.40;;
75156;SDS011;63736;50.076;8.198;2022-12-07T12:34:00;7.22;;;2.10;;
75156;SDS011;63736;50.076;8.198;2022-12-07T12:44:00;6.28;;;1.67;;
75156;SDS011;63736;50.076;8.198;2022-12-07T12:48:54;7.68;;;2.88;;
75156;SDS011;63736;50.076;8.198;2022-12-07T12:51:38;8.80;;;2.50;;
75156;SDS011;63736;50.076;8.198;2022-12-07T12:54:10;13.32;;;6.78;;
75156;SDS011;63736;50.076;8.198;2022-12-07T13:12:56;6.53;;;2.03;;
75156;SDS011;63736;50.076;8.198;2022-12-07T13:31:42;6.93;;;1.70;;
75156;SDS011;63736;50.076;8.198;2022-12-07T13:34:29;10.00;;;2.70;;
75156;SDS011;63736;50.076;8.198;2022-12-07T13:37:05;9.23;;;2.47;;
75156;SDS011;63736;50.076;8.198;2022-12-07T13:39:45;7.63;;;1.73;;
75156;SDS011;63736;50.076;8.198;2022-12-07T13:42:19;10.10;;;2.13;;
75156;SDS011;63736;50.076;8.198;2022-12-07T13:44:51;7.97;;;1.98;;
75156;SDS011;63736;50.076;8.198;2022-12-07T13:47:17;8.20;;;2.37;;
75156;SDS011;63736;50.076;8.198;2022-12-07T13:49:57;7.35;;;2.38;;
75156;SDS011;63736;50.076;8.198;2022-12-07T13:54:56;9.00;;;2.72;;
75156;SDS011;63736;50.076;8.198;2022-12-07T13:57:22;6.72;;;2.15;;
75156;SDS011;63736;50.076;8.198;2022-12-07T13:59:50;6.43;;;2.15;;
75156;SDS011;63736;50.076;8.198;2022-12-07T14:02:21;8.07;;;2.60;;
75156;SDS011;63736;50.076;8.198;2022-12-07T14:04:50;8.47;;;2.10;;
75156;SDS011;63736;50.076;8.198;2022-12-07T14:07:21;5.28;;;1.48;;
75156;SDS011;63736;50.076;8.198;2022-12-07T14:09:59;9.05;;;2.25;;
75156;SDS011;63736;50.076;8.198;2022-12-07T14:12:26;7.65;;;2.03;;
75156;SDS011;63736;50.076;8.198;2022-12-07T14:14:53;9.38;;;2.58;;
75156;SDS011;63736;50.076;8.198;2022-12-07T14:17:20;7.40;;;2.17;;
75156;SDS011;63736;50.076;8.198;2022-12-07T14:19:54;7.68;;;1.63;;
75156;SDS011;63736;50.076;8.198;2022-12-07T14:24:58;8.52;;;2.35;;
75156;SDS011;63736;50.076;8.198;2022-12-07T14:27:39;7.97;;;2.53;;
75156;SDS011;63736;50.076;8.198;2022-12-07T14:30:26;9.83;;;4.37;;
75156;SDS011;63736;50.076;8.198;2022-12-07T14:32:57;9.40;;;3.97;;
75156;SDS011;63736;50.076;8.198;2022-12-07T14:35:25;12.32;;;4.20;;
75156;SDS011;63736;50.076;8.198;2022-12-07T14:37:50;9.13;;;2.85;;
75156;SDS011;63736;50.076;8.198;2022-12-07T14:40:18;33.87;;;27.17;;
75156;SDS011;63736;50.076;8.198;2022-12-07T14:42:45;31.38;;;26.15;;
75156;SDS011;63736;50.076;8.198;2022-12-07T14:45:14;36.20;;;28.55;;
75156;SDS011;63736;50.076;8.198;2022-12-07T14:47:45;51.80;;;35.08;;
75156;SDS011;63736;50.076;8.198;2022-12-07T14:50:11;61.23;;;38.30;;
75156;SDS011;63736;50.076;8.198;2022-12-07T14:52:38;68.90;;;39.95;;
75156;SDS011;63736;50.076;8.198;2022-12-07T14:55:04;55.72;;;36.10;;
75156;SDS011;63736;50.076;8.198;2022-12-07T14:57:34;49.40;;;34.45;;
75156;SDS011;63736;50.076;8.198;2022-12-07T14:59:59;41.83;;;31.50;;
75156;SDS011;63736;50.076;8.198;2022-12-07T15:02:24;43.93;;;31.33;;
75156;SDS011;63736;50.076;8.198;2022-12-07T15:04:50;38.07;;;29.13;;
75156;SDS011;63736;50.076;8.198;2022-12-07T15:07:19;33.03;;;27.50;;
75156;SDS011;63736;50.076;8.198;2022-12-07T15:09:46;31.15;;;25.88;;
75156;SDS011;63736;50.076;8.198;2022-12-07T15:12:12;28.88;;;24.08;;
75156;SDS011;63736;50.076;8.198;2022-12-07T15:14:37;26.43;;;23.50;;
75156;SDS011;63736;50.076;8.198;2022-12-07T15:17:02;30.03;;;23.73;;
75156;SDS011;63736;50.076;8.198;2022-12-07T15:19:27;25.40;;;22.17;;
75156;SDS011;63736;50.076;8.198;2022-12-07T15:21:53;22.98;;;20.00;;
75156;SDS011;63736;50.076;8.198;2022-12-07T15:24:19;20.60;;;18.07;;
75156;SDS011;63736;50.076;8.198;2022-12-07T15:26:44;20.07;;;17.97;;
75156;SDS011;63736;50.076;8.198;2022-12-07T15:29:10;19.60;;;16.42;;
75156;SDS011;63736;50.076;8.198;2022-12-07T15:31:36;18.98;;;16.13;;
75156;SDS011;63736;50.076;8.198;2022-12-07T15:34:02;18.37;;;16.20;;
75156;SDS011;63736;50.076;8.198;2022-12-07T15:36:29;17.38;;;14.75;;
75156;SDS011;63736;50.076;8.198;2022-12-07T15:38:56;18.85;;;16.65;;
75156;SDS011;63736;50.076;8.198;2022-12-07T15:41:21;20.30;;;18.10;;
75156;SDS011;63736;50.076;8.198;2022-12-07T15:43:48;25.45;;;21.92;;
75156;SDS011;63736;50.076;8.198;2022-12-07T15:46:35;30.55;;;26.52;;
75156;SDS011;63736;50.076;8.198;2022-12-07T15:49:03;34.05;;;28.05;;
75156;SDS011;63736;50.076;8.198;2022-12-07T15:51:29;34.50;;;28.38;;
75156;SDS011;63736;50.076;8.198;2022-12-07T15:53:55;32.63;;;26.97;;
75156;SDS011;63736;50.076;8.198;2022-12-07T15:56:22;31.98;;;27.48;;
75156;SDS011;63736;50.076;8.198;2022-12-07T15:58:48;29.97;;;26.27;;
75156;SDS011;63736;50.076;8.198;2022-12-07T16:01:17;39.20;;;29.20;;
75156;SDS011;63736;50.076;8.198;2022-12-07T16:03:43;41.65;;;31.52;;
75156;SDS011;63736;50.076;8.198;2022-12-07T16:06:09;46.85;;;33.38;;
75156;SDS011;63736;50.076;8.198;2022-12-07T16:08:35;68.70;;;40.07;;
75156;SDS011;63736;50.076;8.198;2022-12-07T16:11:04;59.75;;;31.33;;
75156;SDS011;63736;50.076;8.198;2022-12-07T16:13:30;12.48;;;9.93;;
75156;SDS011;63736;50.076;8.198;2022-12-07T16:15:56;33.40;;;28.00;;
75156;SDS011;63736;50.076;8.198;2022-12-07T16:18:21;114.27;;;49.10;;
75156;SDS011;63736;50.076;8.198;2022-12-07T16:20:49;201.70;;;70.53;;
75156;SDS011;63736;50.076;8.198;2022-12-07T16:23:14;244.85;;;81.15;;
75156;SDS011;63736;50.076;8.198;2022-12-07T16:25:40;256.60;;;84.80;;
75156;SDS011;63736;50.076;8.198;2022-12-07T16:28:05;296.70;;;94.73;;
75156;SDS011;63736;50.076;8.198;2022-12-07T16:30:31;282.67;;;91.83;;
75156;SDS011;63736;50.076;8.198;2022-12-07T16:32:56;304.83;;;97.93;;
75156;SDS011;63736;50.076;8.198;2022-12-07T16:35:22;322.90;;;102.93;;